Palm Beach International Airport

Date: 2024-06-11 09:32:00Z

Type: SPECI

Weather: Thunderstorms

Winds: Winds Calm

Visibility: 10+

Ceiling (AGL FT): Clouds SCATTERED at 3500, BROKEN at 22000, SCATTERED at 12000, BROKEN at 8000

RAW METAR: KPBI 110932Z 00000KT 10SM TS SCT035CB BKN220 28/26 A2988 RMK AO2 LTG DSNT ALQDS TSB32 OCNL LTGICCG SW TS SW MOV NE CB DSNT E-SE SW-W T02780256

project-image